Time;durP1;ratioP1;P1;durP2;ratioP2;P2;SDS_P1;SDS_P2;PMS_P1;PMS_P2;Temp;Humidity;BMP_temperature;BMP_pressure;BME280_temperature;BME280_humidity;BME280_pressure;Samples;Min_cycle;Max_cycle;Signal;HPM_P1;HPM_P2
2021/09/01 00:01:53;;;;;;;13.03;9.13;;;15.00;99.90;;;;;;5012025;28;20562;-52
2021/09/01 00:04:19;;;;;;;8.97;8.07;;;15.00;99.90;;;;;;5011909;28;20482;-52
2021/09/01 00:06:46;;;;;;;11.53;7.67;;;15.00;99.90;;;;;;5011752;28;20514;-53
2021/09/01 00:09:13;;;;;;;9.57;7.70;;;15.00;99.90;;;;;;5011339;28;20531;-52
2021/09/01 00:11:41;;;;;;;12.10;9.07;;;14.80;99.90;;;;;;5011630;28;20442;-53
2021/09/01 00:14:08;;;;;;;11.33;8.90;;;15.00;99.90;;;;;;5010792;28;20543;-52
2021/09/01 00:16:35;;;;;;;9.67;8.27;;;15.00;99.90;;;;;;5010349;28;20511;-52
2021/09/01 00:19:04;;;;;;;13.30;8.50;;;15.00;99.90;;;;;;5011220;28;20464;-53
2021/09/01 00:21:34;;;;;;;9.97;8.87;;;15.00;99.90;;;;;;5010323;28;20840;-52
2021/09/01 00:24:00;;;;;;;10.13;9.03;;;15.00;99.90;;;;;;5011546;28;20702;-52
2021/09/01 00:26:29;;;;;;;8.90;7.83;;;15.00;99.90;;;;;;5011722;28;20444;-52
2021/09/01 00:28:59;;;;;;;12.67;9.63;;;15.00;99.90;;;;;;5011341;28;20442;-51
2021/09/01 00:31:26;;;;;;;9.37;8.37;;;15.00;99.90;;;;;;5011278;28;20464;-53
2021/09/01 00:33:53;;;;;;;11.30;9.00;;;15.00;99.90;;;;;;5011346;28;20432;-53
2021/09/01 00:36:21;;;;;;;9.57;8.47;;;14.90;99.90;;;;;;5011330;28;20463;-53
2021/09/01 00:38:48;;;;;;;10.17;9.00;;;14.90;99.90;;;;;;5009752;28;20448;-52
2021/09/01 00:41:16;;;;;;;11.10;9.17;;;14.90;99.90;;;;;;5014369;28;20483;-52
2021/09/01 00:43:43;;;;;;;11.83;8.53;;;14.90;99.90;;;;;;5015500;28;20506;-52
2021/09/01 00:46:11;;;;;;;10.03;9.03;;;15.30;99.90;;;;;;5014923;28;20498;-51
2021/09/01 00:48:37;;;;;;;9.63;8.73;;;14.90;99.90;;;;;;5013276;28;20506;-51
2021/09/01 00:51:07;;;;;;;10.13;7.53;;;14.90;99.90;;;;;;5014921;28;20432;-52
2021/09/01 00:53:34;;;;;;;9.97;8.77;;;14.90;99.90;;;;;;5014821;28;20957;-51
2021/09/01 00:56:02;;;;;;;13.03;9.10;;;14.90;99.90;;;;;;5014918;28;20581;-53
2021/09/01 00:58:34;;;;;;;9.80;8.07;;;14.90;99.90;;;;;;5012971;28;20464;-53
2021/09/01 01:01:15;;;;;;;9.73;8.80;;;14.90;99.90;;;;;;5014636;28;20467;-52
2021/09/01 01:03:47;;;;;;;11.13;9.20;;;14.80;99.90;;;;;;5014781;28;20472;-52
2021/09/01 01:06:14;;;;;;;9.30;8.40;;;14.80;99.90;;;;;;5014591;28;20437;-52
2021/09/01 01:08:41;;;;;;;13.73;9.40;;;14.80;99.90;;;;;;5012914;28;20773;-52
2021/09/01 01:11:12;;;;;;;11.40;9.03;;;14.80;99.90;;;;;;5014517;28;20467;-52
2021/09/01 01:13:40;;;;;;;13.63;10.13;;;14.80;99.90;;;;;;5014423;28;20440;-52
2021/09/01 01:16:08;;;;;;;9.13;8.23;;;14.80;99.90;;;;;;5013095;28;20568;-52
2021/09/01 01:18:35;;;;;;;10.20;8.67;;;14.80;99.90;;;;;;5012983;28;20456;-52
2021/09/01 01:21:03;;;;;;;9.80;8.80;;;14.80;99.90;;;;;;5014268;28;20593;-53
2021/09/01 01:23:30;;;;;;;11.40;9.50;;;14.90;99.90;;;;;;5014081;28;20435;-53
2021/09/01 01:25:58;;;;;;;11.27;9.27;;;14.80;99.90;;;;;;5014271;28;20963;-51
2021/09/01 01:28:25;;;;;;;12.00;8.87;;;14.80;99.90;;;;;;5012649;28;20487;-52
2021/09/01 01:30:51;;;;;;;11.53;9.30;;;14.80;99.90;;;;;;5014135;28;20944;-52
2021/09/01 01:33:18;;;;;;;12.93;9.20;;;14.80;99.90;;;;;;5014213;28;20527;-51
2021/09/01 01:35:46;;;;;;;13.70;9.97;;;15.30;99.90;;;;;;5014082;28;20894;-51
2021/09/01 01:38:19;;;;;;;9.60;8.50;;;14.90;99.90;;;;;;5012172;28;20471;-52
2021/09/01 01:40:46;;;;;;;11.43;10.20;;;14.90;99.90;;;;;;5014049;28;20472;-52
2021/09/01 01:43:15;;;;;;;10.50;9.40;;;15.00;99.90;;;;;;5012687;28;20543;-52
2021/09/01 01:45:44;;;;;;;11.20;9.60;;;15.50;99.90;;;;;;5013944;28;20481;-52
2021/09/01 01:48:13;;;;;;;13.97;8.97;;;15.00;99.90;;;;;;5011986;28;20479;-52
2021/09/01 01:50:41;;;;;;;11.07;9.83;;;15.10;99.90;;;;;;5014011;28;20472;-51
2021/09/01 01:53:10;;;;;;;10.93;9.67;;;15.10;99.90;;;;;;5013595;28;20477;-52
2021/09/01 01:55:38;;;;;;;11.63;10.10;;;15.10;99.90;;;;;;5013773;28;20498;-52
2021/09/01 01:58:05;;;;;;;12.93;10.30;;;15.10;99.90;;;;;;5013287;28;20531;-52
2021/09/01 02:00:33;;;;;;;12.13;10.03;;;15.40;99.90;;;;;;5013735;28;20411;-52
2021/09/01 02:03:00;;;;;;;11.53;9.80;;;15.30;99.90;;;;;;5013409;28;20495;-52
2021/09/01 02:05:27;;;;;;;11.70;10.23;;;15.00;99.90;;;;;;5013457;28;20413;-52
2021/09/01 02:07:54;;;;;;;15.10;10.10;;;15.10;99.90;;;;;;5012943;28;20442;-52
2021/09/01 02:10:20;;;;;;;11.87;10.03;;;15.10;99.90;;;;;;5013392;28;20439;-52
2021/09/01 02:12:47;;;;;;;11.87;10.53;;;15.20;99.90;;;;;;5013348;28;20419;-52
2021/09/01 02:15:14;;;;;;;11.80;10.60;;;15.30;99.90;;;;;;5013240;28;20437;-51
2021/09/01 02:17:43;;;;;;;12.17;9.33;;;15.20;99.90;;;;;;5012804;28;20460;-53
2021/09/01 02:20:11;;;;;;;11.87;10.67;;;15.10;99.90;;;;;;5013213;28;20410;-52
2021/09/01 02:22:38;;;;;;;12.03;10.83;;;15.10;99.90;;;;;;5013009;28;20480;-51
2021/09/01 02:25:06;;;;;;;13.70;10.47;;;15.30;99.90;;;;;;5013114;28;20411;-52
2021/09/01 02:27:33;;;;;;;12.53;11.23;;;15.10;99.90;;;;;;5013037;28;20457;-52
2021/09/01 02:30:00;;;;;;;11.57;10.07;;;15.00;99.90;;;;;;5012472;28;20399;-52
2021/09/01 02:32:27;;;;;;;13.20;11.20;;;15.00;99.90;;;;;;5013004;28;20491;-52
2021/09/01 02:34:55;;;;;;;12.60;9.80;;;15.00;99.90;;;;;;5012825;28;20948;-52
2021/09/01 02:37:21;;;;;;;11.60;10.07;;;15.00;99.90;;;;;;5012874;28;20467;-51
2021/09/01 02:39:48;;;;;;;15.97;11.20;;;15.00;99.90;;;;;;5012546;28;20897;-52
2021/09/01 02:42:15;;;;;;;14.13;9.93;;;14.90;99.90;;;;;;5012705;28;20482;-52
2021/09/01 02:44:41;;;;;;;14.07;10.17;;;14.90;99.90;;;;;;5012731;28;20418;-52
2021/09/01 02:47:08;;;;;;;11.17;9.70;;;14.90;99.90;;;;;;5012636;28;20463;-51
2021/09/01 02:49:35;;;;;;;16.50;11.20;;;14.90;99.90;;;;;;5011000;28;20418;-52
2021/09/01 02:52:04;;;;;;;14.03;10.97;;;14.90;99.90;;;;;;5012670;28;20444;-52
2021/09/01 02:54:30;;;;;;;12.27;10.67;;;14.90;99.90;;;;;;5012609;28;20411;-52
2021/09/01 02:56:57;;;;;;;15.33;9.93;;;14.90;99.90;;;;;;5012445;28;20463;-51
2021/09/01 02:59:23;;;;;;;13.83;10.53;;;15.20;99.90;;;;;;5012112;28;20902;-53
2021/09/01 03:01:50;;;;;;;13.33;10.70;;;14.80;99.90;;;;;;5012470;28;20947;-53
2021/09/01 03:04:16;;;;;;;12.70;11.50;;;15.10;99.90;;;;;;5012448;28;20443;-52
2021/09/01 03:06:43;;;;;;;13.47;12.07;;;14.60;99.90;;;;;;5012207;28;20438;-53
2021/09/01 03:09:12;;;;;;;16.00;11.83;;;15.20;99.90;;;;;;5012183;28;20439;-52
2021/09/01 03:11:38;;;;;;;18.97;12.37;;;14.70;99.90;;;;;;5012556;28;20432;-52
2021/09/01 03:14:05;;;;;;;12.80;11.10;;;14.70;99.90;;;;;;5012318;28;20431;-51
2021/09/01 03:16:31;;;;;;;13.00;11.77;;;14.70;99.90;;;;;;5012151;28;20442;-52
2021/09/01 03:18:58;;;;;;;13.00;11.50;;;14.70;99.90;;;;;;5011873;28;20907;-52
2021/09/01 03:21:24;;;;;;;14.30;11.00;;;15.10;99.90;;;;;;5012235;28;20443;-52
2021/09/01 03:23:51;;;;;;;13.87;12.37;;;14.30;99.90;;;;;;5012240;28;20427;-52
2021/09/01 03:26:19;;;;;;;14.00;11.60;;;14.60;99.90;;;;;;5012495;28;20437;-51
2021/09/01 03:28:45;;;;;;;14.90;11.40;;;14.60;99.90;;;;;;5011965;28;20783;-52
2021/09/01 03:31:12;;;;;;;14.20;11.80;;;14.40;99.90;;;;;;5012171;28;20415;-53
2021/09/01 03:33:39;;;;;;;14.30;12.80;;;14.80;99.90;;;;;;5011883;28;20424;-53
2021/09/01 03:36:06;;;;;;;13.50;12.10;;;14.50;99.90;;;;;;5011872;28;20419;-51
2021/09/01 03:38:33;;;;;;;13.13;11.73;;;14.50;99.90;;;;;;5011527;28;20475;-53
2021/09/01 03:40:59;;;;;;;14.87;13.07;;;14.50;99.90;;;;;;5011715;28;20782;-52
2021/09/01 03:43:27;;;;;;;18.70;12.03;;;14.40;99.90;;;;;;5011920;28;20462;-52
2021/09/01 03:45:55;;;;;;;14.00;11.87;;;14.40;99.90;;;;;;5012205;28;20435;-52
2021/09/01 03:48:22;;;;;;;13.70;11.27;;;14.40;99.90;;;;;;5011444;28;20526;-51
2021/09/01 03:50:48;;;;;;;13.03;11.67;;;14.50;99.90;;;;;;5011936;28;20902;-53
2021/09/01 03:53:16;;;;;;;13.30;11.20;;;14.40;99.90;;;;;;5011955;28;20923;-53
2021/09/01 03:55:43;;;;;;;13.10;11.60;;;14.10;99.90;;;;;;5012010;28;20410;-52
2021/09/01 03:58:11;;;;;;;17.70;13.13;;;14.20;99.90;;;;;;5011466;28;20442;-53
2021/09/01 04:00:40;;;;;;;14.13;11.90;;;14.40;99.90;;;;;;5011832;28;20410;-53
2021/09/01 04:03:06;;;;;;;15.40;12.70;;;14.40;99.90;;;;;;5011570;28;20453;-52
2021/09/01 04:05:33;;;;;;;14.10;11.70;;;14.30;99.90;;;;;;5011476;28;20439;-53
2021/09/01 04:08:00;;;;;;;14.57;12.40;;;14.30;99.90;;;;;;5010975;28;20475;-52
2021/09/01 04:10:26;;;;;;;14.83;11.90;;;14.70;99.90;;;;;;5011703;28;20917;-53
2021/09/01 04:12:53;;;;;;;12.50;11.20;;;14.30;99.90;;;;;;5011631;28;20442;-53
2021/09/01 04:15:20;;;;;;;12.97;11.47;;;14.30;99.90;;;;;;5013175;28;20448;-53
2021/09/01 04:17:48;;;;;;;13.03;11.23;;;13.70;99.90;;;;;;5013764;28;20495;-53
2021/09/01 04:20:14;;;;;;;15.43;12.30;;;14.30;99.90;;;;;;5015560;28;20417;-53
2021/09/01 04:22:41;;;;;;;17.63;12.60;;;14.50;99.90;;;;;;5015237;28;20823;-53
2021/09/01 04:25:09;;;;;;;14.83;11.00;;;14.30;99.90;;;;;;5015338;28;20808;-53
2021/09/01 04:27:35;;;;;;;15.10;10.60;;;14.50;99.90;;;;;;5015355;28;20972;-53
2021/09/01 04:30:02;;;;;;;12.57;11.27;;;14.40;99.90;;;;;;5014931;28;20436;-53
2021/09/01 04:32:28;;;;;;;12.50;11.20;;;14.40;99.90;;;;;;5013684;28;20458;-52
2021/09/01 04:34:57;;;;;;;17.50;11.27;;;14.40;99.90;;;;;;5015119;28;20476;-52
2021/09/01 04:37:23;;;;;;;14.43;12.30;;;14.50;99.90;;;;;;5014757;28;20455;-52
2021/09/01 04:39:50;;;;;;;16.60;12.20;;;14.50;99.90;;;;;;5014564;28;20436;-52
2021/09/01 04:42:16;;;;;;;19.43;12.50;;;14.60;99.90;;;;;;5014901;28;20453;-53
2021/09/01 04:44:43;;;;;;;12.53;11.07;;;14.40;99.90;;;;;;5014964;28;20436;-53
2021/09/01 04:47:09;;;;;;;13.90;11.37;;;14.60;99.90;;;;;;5014864;28;20806;-53
2021/09/01 04:49:36;;;;;;;13.87;12.10;;;14.60;99.90;;;;;;5013043;28;20440;-52
2021/09/01 04:52:04;;;;;;;14.00;11.57;;;15.00;99.90;;;;;;5014592;28;20443;-53
2021/09/01 04:54:32;;;;;;;15.10;11.00;;;14.60;99.90;;;;;;5014652;28;20428;-52
2021/09/01 04:56:58;;;;;;;12.10;10.73;;;15.00;99.90;;;;;;5014456;28;20522;-52
2021/09/01 04:59:25;;;;;;;13.77;12.37;;;14.40;99.90;;;;;;5014145;28;20434;-51
2021/09/01 05:01:52;;;;;;;13.20;11.57;;;14.60;99.90;;;;;;5014526;28;20416;-53
2021/09/01 05:04:18;;;;;;;10.97;9.87;;;14.60;99.90;;;;;;5014202;28;20483;-52
2021/09/01 05:06:45;;;;;;;15.00;12.23;;;15.00;99.90;;;;;;5013958;28;20742;-53
2021/09/01 05:09:13;;;;;;;15.00;11.87;;;14.60;99.90;;;;;;5013640;28;20787;-52
2021/09/01 05:11:39;;;;;;;18.60;13.37;;;14.70;99.90;;;;;;5014196;28;20414;-51
2021/09/01 05:14:06;;;;;;;13.80;10.70;;;14.70;99.90;;;;;;5014009;28;20963;-53
2021/09/01 05:16:33;;;;;;;17.47;11.60;;;14.70;99.90;;;;;;5013763;28;20455;-53
2021/09/01 05:18:59;;;;;;;12.47;11.17;;;14.70;99.90;;;;;;5013620;28;20407;-51
2021/09/01 05:21:28;;;;;;;20.13;10.60;;;14.60;99.90;;;;;;5013810;28;20406;-53
2021/09/01 05:23:55;;;;;;;12.93;11.00;;;14.70;99.90;;;;;;5012410;28;20458;-52
2021/09/01 05:26:30;;;;;;;13.40;10.43;;;14.70;99.90;;;;;;5012304;28;20409;-52
2021/09/01 05:28:58;;;;;;;13.23;11.87;;;14.30;99.90;;;;;;5013260;28;20442;-52
2021/09/01 05:31:30;;;;;;;15.30;11.43;;;14.70;99.90;;;;;;5014321;28;20916;-51
2021/09/01 05:34:00;;;;;;;13.20;10.50;;;14.80;99.90;;;;;;5013730;28;20537;-51
2021/09/01 05:36:26;;;;;;;16.83;10.50;;;14.90;99.90;;;;;;5012894;28;20435;-51
2021/09/01 05:38:55;;;;;;;13.57;11.63;;;15.10;99.90;;;;;;5012898;28;20868;-52
2021/09/01 05:41:21;;;;;;;11.10;9.93;;;15.10;99.90;;;;;;5013383;28;20415;-52
2021/09/01 05:43:52;;;;;;;15.37;10.60;;;15.30;99.90;;;;;;5012773;28;20451;-52
2021/09/01 05:46:19;;;;;;;13.20;9.73;;;15.40;99.90;;;;;;5012901;28;20411;-53
2021/09/01 05:48:46;;;;;;;14.00;10.17;;;15.50;99.90;;;;;;5011924;28;20614;-52
2021/09/01 05:51:14;;;;;;;13.53;9.67;;;15.60;99.90;;;;;;5010813;28;20552;-52
2021/09/01 05:53:41;;;;;;;18.80;11.47;;;15.70;99.90;;;;;;5012767;28;20788;-52
2021/09/01 05:56:13;;;;;;;12.63;9.33;;;15.80;99.90;;;;;;5012827;28;20416;-52
2021/09/01 05:58:44;;;;;;;11.23;9.80;;;15.90;99.90;;;;;;5012533;28;20435;-52
2021/09/01 06:01:14;;;;;;;11.93;10.73;;;15.90;99.90;;;;;;5012673;28;20440;-52
2021/09/01 06:03:43;;;;;;;12.20;10.20;;;16.00;99.90;;;;;;5012696;28;20488;-52
2021/09/01 06:06:15;;;;;;;10.07;9.07;;;16.10;99.90;;;;;;5013044;28;20811;-52
2021/09/01 06:08:47;;;;;;;12.03;9.17;;;16.20;99.90;;;;;;5012603;28;20436;-52
2021/09/01 06:11:17;;;;;;;12.43;8.70;;;16.30;99.90;;;;;;5012859;28;20495;-52
2021/09/01 06:13:43;;;;;;;10.50;9.40;;;16.30;99.90;;;;;;5012499;28;20408;-52
2021/09/01 06:16:11;;;;;;;12.00;8.90;;;16.40;99.90;;;;;;5011822;28;20404;-52
2021/09/01 06:18:38;;;;;;;11.10;9.47;;;16.40;99.90;;;;;;5011574;28;20407;-52
2021/09/01 06:21:04;;;;;;;10.63;9.53;;;16.40;99.90;;;;;;5010742;28;20440;-53
2021/09/01 06:23:31;;;;;;;14.73;8.63;;;16.50;99.90;;;;;;5012393;28;20859;-52
2021/09/01 06:25:58;;;;;;;11.90;8.20;;;16.60;99.90;;;;;;5012431;28;20933;-52
2021/09/01 06:28:24;;;;;;;13.27;8.60;;;16.70;99.90;;;;;;5025676;23;20471;-53
2021/09/01 06:30:51;;;;;;;14.90;8.90;;;16.70;99.90;;;;;;5013105;28;20731;-53
2021/09/01 06:33:19;;;;;;;9.73;8.40;;;16.80;99.90;;;;;;5012717;28;20436;-54
2021/09/01 06:35:48;;;;;;;9.73;7.73;;;16.80;99.90;;;;;;5012977;28;20415;-53
2021/09/01 06:38:14;;;;;;;9.80;8.37;;;16.90;99.90;;;;;;5012386;28;20464;-53
2021/09/01 06:40:41;;;;;;;10.60;9.50;;;16.90;99.90;;;;;;5012442;28;20446;-53
2021/09/01 06:43:08;;;;;;;8.57;7.77;;;17.00;99.90;;;;;;5012653;28;20984;-54
2021/09/01 06:45:37;;;;;;;10.10;9.03;;;17.00;99.90;;;;;;5012804;28;20788;-53
2021/09/01 06:48:04;;;;;;;10.97;9.87;;;17.00;99.90;;;;;;5012173;28;20467;-52
2021/09/01 06:50:33;;;;;;;12.63;9.67;;;17.10;99.90;;;;;;5012135;28;20443;-53
2021/09/01 06:52:59;;;;;;;21.70;10.87;;;17.00;99.90;;;;;;5012027;28;20560;-53
2021/09/01 06:55:26;;;;;;;11.13;8.93;;;17.10;99.90;;;;;;5011965;28;20521;-53
2021/09/01 06:57:53;;;;;;;9.37;8.30;;;17.10;99.90;;;;;;5011551;28;20813;-53
2021/09/01 07:00:20;;;;;;;17.50;9.20;;;17.10;99.90;;;;;;5011332;28;20411;-53
2021/09/01 07:02:47;;;;;;;13.83;8.10;;;17.20;99.90;;;;;;5013906;28;20443;-53
2021/09/01 07:05:16;;;;;;;15.33;8.53;;;17.20;99.90;;;;;;5012406;28;20503;-52
2021/09/01 07:07:44;;;;;;;12.10;9.60;;;17.20;99.90;;;;;;5011967;28;20567;-57
2021/09/01 07:10:13;;;;;;;11.17;7.80;;;17.20;99.90;;;;;;5012474;28;20859;-53
2021/09/01 07:12:40;;;;;;;11.53;8.00;;;17.00;99.90;;;;;;5012616;28;20902;-53
2021/09/01 07:15:09;;;;;;;10.17;8.60;;;17.60;99.90;;;;;;5012366;28;20434;-52
2021/09/01 07:17:35;;;;;;;11.47;8.87;;;17.30;99.90;;;;;;5012413;28;20448;-52
2021/09/01 07:20:02;;;;;;;9.87;8.30;;;17.20;99.90;;;;;;5011619;28;21000;-53
2021/09/01 07:22:29;;;;;;;10.30;8.43;;;17.30;99.90;;;;;;5011678;28;20522;-52
2021/09/01 07:24:57;;;;;;;10.90;8.47;;;17.50;99.90;;;;;;5011876;28;20485;-52
2021/09/01 07:27:23;;;;;;;10.17;8.20;;;17.50;99.90;;;;;;5011177;28;20465;-53
2021/09/01 07:29:50;;;;;;;14.77;11.20;;;17.60;99.90;;;;;;5011906;28;20450;-53
2021/09/01 07:32:17;;;;;;;10.57;7.60;;;17.60;99.90;;;;;;5011688;28;20442;-53
2021/09/01 07:34:44;;;;;;;9.30;7.60;;;17.60;99.90;;;;;;5012289;28;20797;-52
2021/09/01 07:37:10;;;;;;;12.90;8.23;;;17.70;99.90;;;;;;5012668;28;20449;-54
2021/09/01 07:39:37;;;;;;;9.47;8.07;;;17.80;99.90;;;;;;5010756;28;20776;-52
2021/09/01 07:42:05;;;;;;;11.87;8.40;;;17.90;99.90;;;;;;5011380;28;20448;-53
2021/09/01 07:44:32;;;;;;;9.50;7.60;;;17.90;99.90;;;;;;5010903;28;20478;-52
2021/09/01 07:46:58;;;;;;;11.60;8.37;;;18.00;99.90;;;;;;5011058;28;20450;-53
2021/09/01 07:49:25;;;;;;;12.43;8.20;;;18.10;99.90;;;;;;5010217;28;20774;-52
2021/09/01 07:51:52;;;;;;;9.77;7.70;;;18.10;99.90;;;;;;5011006;28;20435;-52
2021/09/01 07:54:18;;;;;;;12.60;8.07;;;18.20;99.90;;;;;;5011493;28;20469;-53
2021/09/01 07:56:45;;;;;;;11.70;7.70;;;18.40;99.90;;;;;;5011106;28;20760;-53
2021/09/01 07:59:13;;;;;;;8.47;7.27;;;18.40;99.90;;;;;;5010749;28;20446;-53
2021/09/01 08:01:40;;;;;;;11.37;10.00;;;18.40;99.90;;;;;;5010954;28;20451;-53
2021/09/01 08:04:06;;;;;;;9.83;7.80;;;18.50;99.90;;;;;;5011566;28;20484;-52
2021/09/01 08:06:33;;;;;;;15.13;7.93;;;18.70;99.90;;;;;;5011547;28;20867;-53
2021/09/01 08:09:00;;;;;;;9.23;7.37;;;18.70;99.90;;;;;;5009429;28;20450;-52
2021/09/01 08:11:26;;;;;;;12.13;8.00;;;18.80;99.90;;;;;;5011588;28;20956;-53
2021/09/01 08:13:53;;;;;;;10.37;9.27;;;18.80;99.90;;;;;;5010396;28;20487;-53
2021/09/01 08:16:21;;;;;;;12.37;9.10;;;18.90;99.90;;;;;;5011461;28;20462;-53
2021/09/01 08:18:47;;;;;;;9.87;8.40;;;18.90;99.90;;;;;;5012161;28;20432;-54
2021/09/01 08:21:14;;;;;;;12.97;7.77;;;18.90;99.90;;;;;;5012721;28;20439;-51
2021/09/01 08:23:41;;;;;;;11.23;8.40;;;18.80;99.90;;;;;;5010666;28;20506;-52
2021/09/01 08:26:08;;;;;;;12.67;9.17;;;18.80;99.90;;;;;;5011147;28;20928;-51
2021/09/01 08:28:34;;;;;;;12.10;8.87;;;18.80;99.90;;;;;;5010749;28;20450;-52
2021/09/01 08:31:01;;;;;;;11.57;8.87;;;18.80;99.90;;;;;;5011288;28;20935;-52
2021/09/01 08:33:29;;;;;;;11.97;9.10;;;18.90;99.90;;;;;;5010833;28;20519;-53
2021/09/01 08:35:55;;;;;;;10.30;8.77;;;18.90;99.90;;;;;;5011595;28;20536;-52
2021/09/01 08:38:22;;;;;;;11.30;8.67;;;18.90;99.90;;;;;;5011440;28;20465;-52
2021/09/01 08:40:49;;;;;;;12.13;9.30;;;18.90;99.90;;;;;;5010823;28;20494;-53
2021/09/01 08:43:17;;;;;;;15.70;10.50;;;18.90;99.90;;;;;;5010768;28;20443;-54
2021/09/01 08:45:45;;;;;;;12.87;9.47;;;18.90;99.90;;;;;;5010692;28;20625;-53
2021/09/01 08:48:14;;;;;;;14.40;9.93;;;19.00;99.90;;;;;;5010330;28;20456;-53
2021/09/01 08:50:42;;;;;;;11.93;10.37;;;19.00;99.90;;;;;;5010661;28;20842;-53
2021/09/01 08:53:09;;;;;;;13.60;10.27;;;19.00;99.90;;;;;;5011262;28;20444;-53
2021/09/01 08:55:35;;;;;;;11.33;9.80;;;19.10;99.90;;;;;;5011319;28;20445;-53
2021/09/01 08:58:02;;;;;;;10.80;9.10;;;19.10;99.90;;;;;;5010841;28;20467;-54
2021/09/01 09:00:29;;;;;;;11.10;10.00;;;19.00;99.90;;;;;;5011792;28;20440;-53
2021/09/01 09:02:57;;;;;;;14.87;9.80;;;18.90;99.90;;;;;;5015101;28;20435;-53
2021/09/01 09:05:33;;;;;;;14.57;11.27;;;18.90;99.90;;;;;;5014663;28;20488;-53
2021/09/01 09:08:02;;;;;;;17.77;11.30;;;18.90;99.90;;;;;;5013939;28;20459;-52
2021/09/01 09:10:31;;;;;;;12.17;10.70;;;18.90;99.90;;;;;;5014233;28;20523;-53
2021/09/01 09:12:59;;;;;;;12.97;10.50;;;18.90;99.90;;;;;;5012957;28;20447;-53
2021/09/01 09:15:26;;;;;;;15.77;11.87;;;18.90;99.90;;;;;;5012428;28;20440;-55
2021/09/01 09:17:53;;;;;;;13.50;11.60;;;18.90;99.90;;;;;;5013698;28;20474;-53
2021/09/01 09:20:27;;;;;;;15.23;12.00;;;18.90;99.90;;;;;;5025575;28;20448;-52
2021/09/01 09:22:54;;;;;;;19.20;12.07;;;19.10;99.90;;;;;;5006526;28;20440;-53
2021/09/01 09:25:25;;;;;;;15.20;13.33;;;19.00;99.90;;;;;;5001585;28;20477;-53
2021/09/01 09:27:53;;;;;;;16.33;11.30;;;19.10;99.90;;;;;;4993911;28;20447;-54
2021/09/01 09:30:31;;;;;;;16.67;11.83;;;19.10;99.90;;;;;;4994312;28;20799;-53
2021/09/01 09:33:00;;;;;;;68.47;16.60;;;19.30;99.90;;;;;;4997921;28;20422;-53
2021/09/01 09:35:28;;;;;;;22.13;12.53;;;19.40;99.90;;;;;;5014643;28;20444;-53
2021/09/01 09:38:01;;;;;;;54.20;14.13;;;19.50;99.90;;;;;;5011630;28;20438;-54
2021/09/01 09:40:30;;;;;;;115.70;17.63;;;19.60;99.90;;;;;;4999962;28;20671;-54
2021/09/01 09:42:57;;;;;;;16.77;12.20;;;19.60;99.90;;;;;;5013338;28;20546;-54
2021/09/01 09:45:26;;;;;;;16.37;11.00;;;19.80;99.90;;;;;;5013562;28;20498;-55
2021/09/01 09:47:54;;;;;;;108.23;16.57;;;20.00;99.90;;;;;;5013026;28;20464;-53
2021/09/01 09:50:21;;;;;;;47.87;14.57;;;20.00;99.90;;;;;;5006657;28;20442;-52
2021/09/01 09:52:49;;;;;;;12.50;11.20;;;20.00;99.90;;;;;;4993530;28;20757;-52
2021/09/01 09:55:18;;;;;;;33.23;12.37;;;20.00;99.90;;;;;;4997048;28;20523;-52
2021/09/01 09:57:54;;;;;;;25.97;12.83;;;20.00;99.90;;;;;;5012306;28;20969;-53
2021/09/01 10:00:23;;;;;;;115.37;18.93;;;20.10;99.90;;;;;;5012781;28;20441;-53
2021/09/01 10:02:50;;;;;;;14.90;12.97;;;20.10;99.90;;;;;;5012892;28;21019;-53
2021/09/01 10:05:18;;;;;;;23.73;14.37;;;19.80;99.90;;;;;;5012362;28;20495;-52
2021/09/01 10:07:47;;;;;;;121.47;19.50;;;19.90;99.90;;;;;;4996803;28;20451;-52
2021/09/01 10:10:15;;;;;;;13.23;11.93;;;19.90;99.90;;;;;;4996728;28;20556;-52
2021/09/01 10:12:43;;;;;;;17.17;12.87;;;20.00;99.90;;;;;;5011935;28;20449;-53
2021/09/01 10:15:16;;;;;;;52.77;14.13;;;20.00;99.90;;;;;;5013126;28;20436;-53
2021/09/01 10:17:45;;;;;;;13.50;12.20;;;20.10;99.90;;;;;;5000909;28;20476;-54
2021/09/01 10:20:20;;;;;;;49.70;14.83;;;20.20;99.90;;;;;;4993304;28;20434;-53
2021/09/01 10:22:58;;;;;;;18.77;12.60;;;20.30;99.90;;;;;;4993246;28;20507;-51
2021/09/01 10:25:33;;;;;;;18.53;11.30;;;20.40;99.90;;;;;;4992973;28;20481;-52
2021/09/01 10:28:34;;;;;;;39.53;11.80;;;20.40;99.90;;;;;;4992854;28;20519;-52
2021/09/01 10:31:23;;;;;;;15.47;11.77;;;20.50;99.90;;;;;;5010594;28;20454;-53
2021/09/01 10:33:52;;;;;;;22.43;12.13;;;20.50;99.90;;;;;;5007071;28;20884;-54
2021/09/01 10:36:39;;;;;;;12.90;11.60;;;20.50;99.90;;;;;;4993027;28;20437;-54
2021/09/01 10:39:38;;;;;;;13.50;10.73;;;20.50;99.90;;;;;;4992764;28;20921;-54
2021/09/01 10:42:34;;;;;;;11.60;9.30;;;20.40;99.90;;;;;;4992717;28;20529;-54
2021/09/01 10:45:00;;;;;;;58.23;13.90;;;20.40;99.90;;;;;;4992724;28;20470;-54
2021/09/01 10:47:48;;;;;;;10.80;8.90;;;20.40;99.90;;;;;;4992829;28;20453;-54
2021/09/01 10:50:16;;;;;;;12.43;9.97;;;20.50;99.90;;;;;;4992403;28;20444;-54
2021/09/01 10:52:58;;;;;;;12.63;9.27;;;20.50;99.90;;;;;;4993864;28;20458;-54
2021/09/01 10:55:26;;;;;;;11.13;9.50;;;20.80;99.90;;;;;;4993434;28;20437;-54
2021/09/01 10:58:16;;;;;;;26.77;11.10;;;20.70;99.90;;;;;;4991760;28;20458;-54
2021/09/01 11:00:44;;;;;;;20.63;10.70;;;20.80;99.90;;;;;;4992157;28;20434;-54
2021/09/01 11:03:12;;;;;;;13.07;10.23;;;20.80;99.90;;;;;;4992464;28;20504;-53
2021/09/01 11:05:38;;;;;;;10.70;9.30;;;20.60;99.90;;;;;;4991200;28;20482;-53
2021/09/01 11:08:05;;;;;;;12.77;9.90;;;20.50;99.90;;;;;;4991941;28;20467;-53
2021/09/01 11:10:32;;;;;;;22.30;10.37;;;20.70;99.90;;;;;;4992361;28;20434;-53
2021/09/01 11:13:00;;;;;;;13.03;10.00;;;20.80;99.90;;;;;;4992054;28;20751;-53
2021/09/01 11:15:28;;;;;;;13.23;9.77;;;20.70;99.90;;;;;;4992683;28;20434;-53
2021/09/01 11:18:05;;;;;;;12.50;9.83;;;20.90;99.90;;;;;;4991643;28;20461;-54
2021/09/01 11:20:33;;;;;;;12.70;9.77;;;21.00;99.90;;;;;;4992741;28;20865;-54
2021/09/01 11:23:01;;;;;;;11.23;10.10;;;21.10;99.90;;;;;;4992237;28;20536;-54
2021/09/01 11:25:29;;;;;;;11.53;10.00;;;21.20;99.90;;;;;;4990938;28;20553;-53
2021/09/01 11:27:57;;;;;;;13.33;10.37;;;21.20;99.90;;;;;;4991182;28;20467;-53
2021/09/01 11:30:32;;;;;;;15.97;10.87;;;21.30;99.90;;;;;;4991376;28;20535;-53
2021/09/01 11:32:59;;;;;;;12.73;10.30;;;21.30;99.90;;;;;;4992063;28;20463;-54
2021/09/01 11:35:29;;;;;;;16.20;12.73;;;21.30;99.90;;;;;;4992126;28;20443;-53
2021/09/01 11:37:58;;;;;;;12.60;10.10;;;21.30;99.90;;;;;;4990069;28;20476;-54
2021/09/01 11:40:32;;;;;;;12.43;11.17;;;21.40;99.90;;;;;;4991837;28;20536;-54
2021/09/01 11:42:59;;;;;;;11.50;10.37;;;21.40;99.90;;;;;;4991331;28;20431;-53
2021/09/01 11:45:25;;;;;;;12.30;10.63;;;21.50;99.90;;;;;;4992090;28;20482;-54
2021/09/01 11:47:52;;;;;;;13.00;10.43;;;21.50;99.90;;;;;;4991518;28;20460;-54
2021/09/01 11:50:20;;;;;;;12.40;10.27;;;21.50;99.90;;;;;;4991752;28;20787;-54
2021/09/01 11:52:53;;;;;;;12.83;10.30;;;21.60;99.90;;;;;;4991681;28;20439;-54
2021/09/01 11:55:24;;;;;;;10.73;9.73;;;21.60;99.90;;;;;;4991767;28;20436;-54
2021/09/01 11:57:51;;;;;;;11.03;10.03;;;21.60;99.90;;;;;;4991085;28;20456;-54
2021/09/01 12:00:18;;;;;;;11.70;10.23;;;21.60;99.90;;;;;;4991593;28;20488;-54
2021/09/01 12:02:49;;;;;;;10.83;9.73;;;21.70;99.90;;;;;;4990365;28;20430;-54
2021/09/01 12:05:28;;;;;;;10.20;9.20;;;21.70;99.90;;;;;;4991433;28;20476;-54
2021/09/01 12:07:55;;;;;;;13.40;10.00;;;21.70;99.90;;;;;;4989727;28;20666;-55
2021/09/01 12:10:23;;;;;;;10.90;9.23;;;21.70;99.90;;;;;;4992669;28;20972;-54
2021/09/01 12:12:59;;;;;;;14.97;10.60;;;21.70;99.90;;;;;;4991895;28;20452;-54
2021/09/01 12:15:26;;;;;;;13.03;9.93;;;21.80;99.90;;;;;;4991341;28;20459;-54
2021/09/01 12:18:01;;;;;;;11.20;9.40;;;21.80;99.90;;;;;;4991338;28;20487;-54
2021/09/01 12:20:28;;;;;;;10.20;8.50;;;21.80;99.90;;;;;;4991408;28;20524;-53
2021/09/01 12:22:55;;;;;;;14.57;8.97;;;21.70;99.90;;;;;;4990846;28;20437;-54
2021/09/01 12:25:24;;;;;;;10.33;9.30;;;21.70;99.90;;;;;;4991194;28;20479;-52
2021/09/01 12:28:00;;;;;;;8.97;8.07;;;21.70;99.90;;;;;;4991311;28;20973;-51
2021/09/01 12:30:28;;;;;;;11.23;9.40;;;21.70;99.90;;;;;;4991532;28;20452;-51
2021/09/01 12:32:57;;;;;;;12.37;9.90;;;21.70;99.90;;;;;;4990959;28;20447;-51
2021/09/01 12:35:27;;;;;;;9.87;8.90;;;21.80;99.90;;;;;;4991621;28;20843;-51
2021/09/01 12:37:57;;;;;;;9.20;8.30;;;21.80;99.90;;;;;;4994485;28;20451;-52
2021/09/01 12:40:30;;;;;;;11.93;10.70;;;21.90;99.90;;;;;;4994723;28;20484;-52